Time;durP1;ratioP1;P1;durP2;ratioP2;P2;SDS_P1;SDS_P2;PMS_P1;PMS_P2;Temp;Humidity;BMP_temperature;BMP_pressure;BME280_temperature;BME280_humidity;BME280_pressure;Samples;Min_cycle;Max_cycle;Signal;HPM_P1;HPM_P2
2023/03/03 00:01:32;;;;;;;30.67;24.58;;;;;;;;;;10409247;27;20074;-57
2023/03/03 00:06:30;;;;;;;35.38;27.02;;;;;;;;;;10404747;27;20101;-57
2023/03/03 00:11:28;;;;;;;37.95;26.25;;;;;;;;;;10398981;27;20070;-57
2023/03/03 00:16:28;;;;;;;50.08;39.00;;;;;;;;;;10409208;27;20492;-57
2023/03/03 00:21:32;;;;;;;57.28;41.65;;;;;;;;;;10395602;27;20497;-56
2023/03/03 00:26:32;;;;;;;67.05;46.35;;;;;;;;;;10406511;27;20094;-58
2023/03/03 00:31:33;;;;;;;43.22;31.75;;;;;;;;;;10412696;27;20511;-57
2023/03/03 00:36:36;;;;;;;39.92;32.22;;;;;;;;;;10408925;27;20074;-57
2023/03/03 00:41:36;;;;;;;36.35;27.50;;;;;;;;;;10407574;27;20087;-58
2023/03/03 00:46:37;;;;;;;32.25;26.35;;;;;;;;;;10411306;27;20075;-59
2023/03/03 00:51:36;;;;;;;36.70;25.83;;;;;;;;;;10404618;27;20082;-59
2023/03/03 00:56:34;;;;;;;37.28;28.60;;;;;;;;;;10410605;27;20087;-60
2023/03/03 01:01:32;;;;;;;31.35;24.73;;;;;;;;;;10414916;27;20098;-58
2023/03/03 01:06:31;;;;;;;32.65;24.25;;;;;;;;;;10413025;27;20531;-58
2023/03/03 01:11:31;;;;;;;35.25;25.05;;;;;;;;;;10411063;28;20410;-59
2023/03/03 01:16:29;;;;;;;40.47;32.80;;;;;;;;;;10410347;28;20632;-59
2023/03/03 01:21:27;;;;;;;39.38;32.72;;;;;;;;;;10412421;28;20098;-58
2023/03/03 01:26:25;;;;;;;31.77;26.38;;;;;;;;;;10410739;28;20074;-59
2023/03/03 01:31:25;;;;;;;33.67;26.67;;;;;;;;;;10412124;28;20063;-58
2023/03/03 01:36:23;;;;;;;34.17;26.95;;;;;;;;;;10410756;27;20062;-58
2023/03/03 01:41:22;;;;;;;33.17;24.63;;;;;;;;;;10420126;27;20586;-58
2023/03/03 01:46:33;;;;;;;50.53;35.05;;;;;;;;;;10420234;27;20075;-58
2023/03/03 01:51:33;;;;;;;41.53;31.38;;;;;;;;;;10418030;27;20083;-58
2023/03/03 01:56:32;;;;;;;37.42;28.05;;;;;;;;;;10416088;27;20077;-58
2023/03/03 02:01:31;;;;;;;40.45;30.45;;;;;;;;;;10416859;27;20455;-58
2023/03/03 02:06:31;;;;;;;44.72;32.08;;;;;;;;;;10416451;27;20047;-57
2023/03/03 02:11:31;;;;;;;43.72;33.60;;;;;;;;;;10413709;27;20070;-58
2023/03/03 02:16:29;;;;;;;31.88;25.73;;;;;;;;;;10418035;27;20066;-59
2023/03/03 02:21:27;;;;;;;30.70;23.92;;;;;;;;;;10413806;27;20067;-59
2023/03/03 02:26:27;;;;;;;33.58;24.67;;;;;;;;;;10424385;27;20044;-55
2023/03/03 02:31:31;;;;;;;32.58;25.70;;;;;;;;;;10417074;27;20086;-58
2023/03/03 02:36:31;;;;;;;32.35;25.55;;;;;;;;;;10416800;27;20070;-58
2023/03/03 02:41:33;;;;;;;30.40;24.10;;;;;;;;;;10417686;27;20082;-57
2023/03/03 02:46:34;;;;;;;34.33;27.48;;;;;;;;;;10410665;27;20055;-59
2023/03/03 02:51:33;;;;;;;33.92;25.55;;;;;;;;;;10413210;27;20067;-57
2023/03/03 02:56:33;;;;;;;32.42;27.08;;;;;;;;;;10415729;27;20485;-57
2023/03/03 03:01:35;;;;;;;32.50;25.63;;;;;;;;;;10414942;27;20070;-58
2023/03/03 03:06:36;;;;;;;39.20;24.13;;;;;;;;;;10415497;27;20086;-57
2023/03/03 03:11:36;;;;;;;29.08;22.40;;;;;;;;;;10412888;27;20500;-58
2023/03/03 03:16:36;;;;;;;30.50;23.70;;;;;;;;;;10423395;27;20079;-59
2023/03/03 03:21:35;;;;;;;27.95;22.60;;;;;;;;;;10423203;27;20196;-59
2023/03/03 03:26:36;;;;;;;29.80;23.70;;;;;;;;;;10414703;27;20062;-59
2023/03/03 03:31:34;;;;;;;40.28;27.55;;;;;;;;;;10416491;27;20618;-60
2023/03/03 03:36:33;;;;;;;38.33;26.55;;;;;;;;;;10414483;27;20468;-58
2023/03/03 03:41:32;;;;;;;31.00;25.38;;;;;;;;;;10413835;27;20082;-58
2023/03/03 03:46:32;;;;;;;32.88;24.98;;;;;;;;;;10414134;27;20484;-59
2023/03/03 03:51:32;;;;;;;27.10;23.30;;;;;;;;;;10413021;27;20040;-58
2023/03/03 03:56:31;;;;;;;29.92;24.00;;;;;;;;;;10413351;27;20043;-58
2023/03/03 04:01:33;;;;;;;39.17;29.30;;;;;;;;;;10410916;27;20087;-58
2023/03/03 04:06:31;;;;;;;36.80;29.65;;;;;;;;;;10411296;27;20497;-58
2023/03/03 04:11:31;;;;;;;105.43;77.47;;;;;;;;;;10410811;27;20058;-59
2023/03/03 04:16:29;;;;;;;34.17;27.80;;;;;;;;;;10413212;27;20488;-58
2023/03/03 04:21:29;;;;;;;36.45;28.23;;;;;;;;;;10409806;27;20066;-58
2023/03/03 04:26:30;;;;;;;37.47;26.88;;;;;;;;;;10418911;27;20071;-58
2023/03/03 04:31:30;;;;;;;34.85;27.20;;;;;;;;;;10406223;27;20043;-59
2023/03/03 04:36:30;;;;;;;41.75;32.15;;;;;;;;;;10410982;27;20501;-59
2023/03/03 04:41:29;;;;;;;35.83;28.23;;;;;;;;;;10408797;27;20071;-59
2023/03/03 04:46:27;;;;;;;39.90;29.90;;;;;;;;;;10408164;27;20476;-58
2023/03/03 04:51:26;;;;;;;46.83;35.78;;;;;;;;;;10407764;27;20075;-58
2023/03/03 04:56:27;;;;;;;47.75;34.08;;;;;;;;;;10411020;27;20067;-58
2023/03/03 05:01:25;;;;;;;45.53;34.42;;;;;;;;;;10414796;27;20078;-58
2023/03/03 05:06:25;;;;;;;54.30;39.22;;;;;;;;;;10412936;27;20094;-57
2023/03/03 05:11:23;;;;;;;54.15;41.30;;;;;;;;;;10410398;28;20417;-60
2023/03/03 05:16:23;;;;;;;66.60;42.95;;;;;;;;;;10409240;28;20062;-58
2023/03/03 05:21:21;;;;;;;48.75;36.55;;;;;;;;;;10409673;28;20074;-59
2023/03/03 05:26:20;;;;;;;46.35;34.53;;;;;;;;;;10412145;28;20058;-59
2023/03/03 05:31:18;;;;;;;40.97;32.22;;;;;;;;;;10412673;28;20067;-59
2023/03/03 05:36:17;;;;;;;45.53;34.97;;;;;;;;;;10412053;27;20072;-59
2023/03/03 05:41:15;;;;;;;67.68;50.90;;;;;;;;;;10413168;27;20493;-59
2023/03/03 05:46:14;;;;;;;65.45;44.15;;;;;;;;;;10411425;28;20063;-60
2023/03/03 05:51:12;;;;;;;79.70;59.35;;;;;;;;;;10408201;28;20074;-59
2023/03/03 05:56:12;;;;;;;52.85;40.92;;;;;;;;;;10411592;28;20045;-58
2023/03/03 06:01:10;;;;;;;49.13;37.88;;;;;;;;;;10408886;28;20090;-59
2023/03/03 06:06:09;;;;;;;51.10;38.80;;;;;;;;;;10409011;27;20484;-59
2023/03/03 06:11:07;;;;;;;53.53;43.50;;;;;;;;;;10409984;28;20085;-58
2023/03/03 06:16:07;;;;;;;43.40;35.70;;;;;;;;;;10413807;28;20043;-59
2023/03/03 06:21:05;;;;;;;42.70;36.67;;;;;;;;;;10409038;28;20066;-59
2023/03/03 06:26:03;;;;;;;40.45;34.80;;;;;;;;;;10413951;27;20070;-58
2023/03/03 06:31:02;;;;;;;42.85;34.80;;;;;;;;;;10418053;27;20050;-59
2023/03/03 06:36:01;;;;;;;43.97;37.20;;;;;;;;;;10417494;27;20535;-58
2023/03/03 06:41:06;;;;;;;49.28;41.30;;;;;;;;;;10412885;27;20075;-59
2023/03/03 06:46:04;;;;;;;68.00;54.63;;;;;;;;;;10415459;27;20134;-58
2023/03/03 06:51:22;;;;;;;63.45;46.38;;;;;;;;;;10414159;27;20079;-58
2023/03/03 06:56:20;;;;;;;53.35;40.53;;;;;;;;;;10413478;27;20063;-59
2023/03/03 07:01:18;;;;;;;50.58;38.10;;;;;;;;;;10419171;27;20525;-59
2023/03/03 07:06:21;;;;;;;60.75;52.25;;;;;;;;;;10414018;27;20062;-59
2023/03/03 07:11:20;;;;;;;50.05;44.63;;;;;;;;;;10417444;27;20094;-59
2023/03/03 07:16:19;;;;;;;30.50;26.48;;;;;;;;;;10412434;27;20087;-59
2023/03/03 07:21:19;;;;;;;45.90;34.45;;;;;;;;;;10415773;27;20075;-59
2023/03/03 07:26:21;;;;;;;31.92;26.25;;;;;;;;;;10414479;27;20063;-60
2023/03/03 07:31:27;;;;;;;32.72;27.08;;;;;;;;;;10414681;27;20063;-59
2023/03/03 07:36:27;;;;;;;33.95;29.00;;;;;;;;;;10412415;27;20511;-59
2023/03/03 07:41:27;;;;;;;38.92;30.75;;;;;;;;;;10416218;27;20098;-59
2023/03/03 07:46:27;;;;;;;34.78;28.77;;;;;;;;;;10413572;27;20071;-59
2023/03/03 07:51:27;;;;;;;32.15;26.42;;;;;;;;;;10413165;27;20067;-59
2023/03/03 07:56:29;;;;;;;34.75;29.08;;;;;;;;;;10408347;27;20062;-57
2023/03/03 08:01:41;;;;;;;35.78;29.27;;;;;;;;;;10403269;27;20071;-59
2023/03/03 08:06:44;;;;;;;47.85;38.08;;;;;;;;;;10401148;27;20071;-60
2023/03/03 08:11:48;;;;;;;37.88;30.88;;;;;;;;;;10405119;27;20083;-59
2023/03/03 08:16:47;;;;;;;48.78;39.25;;;;;;;;;;10414791;27;20039;-59
2023/03/03 08:21:45;;;;;;;38.72;33.67;;;;;;;;;;10411759;27;20500;-60
2023/03/03 08:26:44;;;;;;;58.15;45.13;;;;;;;;;;10401076;27;20074;-61
2023/03/03 08:31:43;;;;;;;38.90;32.90;;;;;;;;;;10401393;27;20497;-60
2023/03/03 08:36:41;;;;;;;39.90;33.58;;;;;;;;;;10401682;27;20512;-60
2023/03/03 08:41:42;;;;;;;33.40;29.67;;;;;;;;;;10403834;27;20075;-59
2023/03/03 08:46:42;;;;;;;54.38;48.83;;;;;;;;;;10394734;27;20070;-59
2023/03/03 08:51:41;;;;;;;40.72;31.85;;;;;;;;;;10403490;27;20067;-60
2023/03/03 08:56:39;;;;;;;40.00;31.20;;;;;;;;;;10407162;27;20074;-60
2023/03/03 09:01:37;;;;;;;33.55;27.05;;;;;;;;;;10405617;27;20423;-61
2023/03/03 09:06:37;;;;;;;31.77;26.80;;;;;;;;;;10404421;27;20491;-60
2023/03/03 09:11:35;;;;;;;37.22;28.15;;;;;;;;;;10403468;27;20461;-59
2023/03/03 09:16:36;;;;;;;37.22;30.63;;;;;;;;;;10398838;27;20059;-59
2023/03/03 09:21:35;;;;;;;41.88;34.85;;;;;;;;;;10395671;28;20501;-60
2023/03/03 09:26:40;;;;;;;50.13;35.40;;;;;;;;;;10404076;28;20067;-59
2023/03/03 09:31:39;;;;;;;39.00;28.48;;;;;;;;;;10397140;28;20538;-58
2023/03/03 09:36:38;;;;;;;33.63;28.33;;;;;;;;;;10396177;28;20059;-59
2023/03/03 09:41:53;;;;;;;57.10;41.97;;;;;;;;;;10394644;28;20060;-59
2023/03/03 09:47:02;;;;;;;50.78;40.00;;;;;;;;;;10395974;28;20079;-60
2023/03/03 09:52:08;;;;;;;36.03;30.73;;;;;;;;;;10399995;28;20078;-60
2023/03/03 09:57:13;;;;;;;40.28;32.35;;;;;;;;;;10396906;28;20074;-57
2023/03/03 10:02:21;;;;;;;37.47;31.00;;;;;;;;;;10400708;27;20106;-58
2023/03/03 10:07:25;;;;;;;33.42;29.63;;;;;;;;;;10402029;27;20164;-57
2023/03/03 10:12:27;;;;;;;44.45;31.35;;;;;;;;;;10404300;27;20101;-59
2023/03/03 10:17:31;;;;;;;39.58;33.28;;;;;;;;;;10407331;27;21105;-59
2023/03/03 10:22:34;;;;;;;42.47;32.42;;;;;;;;;;10405140;27;20075;-59
2023/03/03 10:27:44;;;;;;;42.22;33.65;;;;;;;;;;10402656;27;20067;-59
2023/03/03 10:32:47;;;;;;;33.28;29.08;;;;;;;;;;10405371;27;20082;-59
2023/03/03 10:37:50;;;;;;;41.15;32.22;;;;;;;;;;10401849;27;20093;-58
2023/03/03 10:42:55;;;;;;;50.47;37.50;;;;;;;;;;10400941;27;20075;-59
2023/03/03 10:47:59;;;;;;;45.55;33.50;;;;;;;;;;10404368;27;20498;-59
2023/03/03 10:53:03;;;;;;;46.30;33.27;;;;;;;;;;10401431;27;20070;-60
2023/03/03 10:58:11;;;;;;;38.83;31.10;;;;;;;;;;10403679;27;20071;-59
2023/03/03 11:03:23;;;;;;;38.55;31.23;;;;;;;;;;10402483;27;20079;-60
2023/03/03 11:08:24;;;;;;;33.20;29.05;;;;;;;;;;10406759;27;20082;-59
2023/03/03 11:13:28;;;;;;;32.35;27.50;;;;;;;;;;10404001;27;20991;-58
2023/03/03 11:18:44;;;;;;;36.45;30.52;;;;;;;;;;10404249;27;20063;-60
2023/03/03 11:23:42;;;;;;;;;;;;;;;;;;10409782;27;20081;-59
2023/03/03 11:28:50;;;;;;;43.03;33.70;;;;;;;;;;10407318;27;19962;-60
2023/03/03 11:33:54;;;;;;;42.75;37.88;;;;;;;;;;10404844;27;20075;-59
2023/03/03 11:38:55;;;;;;;38.60;30.60;;;;;;;;;;10398998;27;20063;-61
2023/03/03 11:43:57;;;;;;;40.47;32.40;;;;;;;;;;10397249;27;20074;-60
2023/03/03 11:48:59;;;;;;;56.47;43.60;;;;;;;;;;10399706;27;20083;-59
2023/03/03 11:53:59;;;;;;;48.88;38.60;;;;;;;;;;10399810;27;20082;-59
2023/03/03 11:59:09;;;;;;;61.97;47.22;;;;;;;;;;10398284;27;20639;-60
2023/03/03 12:04:10;;;;;;;58.33;43.25;;;;;;;;;;10399306;27;20086;-60
2023/03/03 12:09:26;;;;;;;40.72;33.53;;;;;;;;;;10409130;27;20082;-61
2023/03/03 12:14:39;;;;;;;36.63;30.83;;;;;;;;;;10406478;27;20079;-61
2023/03/03 12:19:44;;;;;;;47.20;35.90;;;;;;;;;;10408227;27;20067;-60
2023/03/03 12:25:00;;;;;;;51.28;41.47;;;;;;;;;;10406888;27;20067;-60
2023/03/03 12:30:05;;;;;;;77.35;61.50;;;;;;;;;;10408510;27;20086;-60
2023/03/03 12:35:05;;;;;;;55.28;42.28;;;;;;;;;;10412407;27;20067;-59
2023/03/03 12:40:07;;;;;;;79.78;55.13;;;;;;;;;;10413219;27;20075;-60
2023/03/03 12:45:11;;;;;;;84.13;59.30;;;;;;;;;;10411829;27;20070;-60
2023/03/03 12:50:24;;;;;;;51.72;38.42;;;;;;;;;;10415349;27;20063;-60
2023/03/03 12:55:26;;;;;;;56.60;43.30;;;;;;;;;;10409168;27;20453;-59
2023/03/03 13:00:28;;;;;;;47.58;38.35;;;;;;;;;;10413880;27;20076;-60
2023/03/03 13:05:29;;;;;;;53.30;40.45;;;;;;;;;;10413172;27;20078;-61
2023/03/03 13:10:33;;;;;;;70.32;51.25;;;;;;;;;;10412375;27;20143;-60
2023/03/03 13:15:35;;;;;;;109.00;67.65;;;;;;;;;;10410029;28;20078;-60
2023/03/03 13:20:40;;;;;;;97.18;65.32;;;;;;;;;;10411618;28;20063;-60
2023/03/03 13:25:46;;;;;;;113.63;74.47;;;;;;;;;;10413862;28;20589;-60
2023/03/03 13:30:47;;;;;;;47.42;35.47;;;;;;;;;;10408435;28;20079;-59
2023/03/03 13:35:48;;;;;;;78.78;51.53;;;;;;;;;;10418443;27;20067;-60
2023/03/03 13:40:49;;;;;;;54.28;44.13;;;;;;;;;;10417201;27;20553;-59
2023/03/03 13:45:56;;;;;;;97.68;70.88;;;;;;;;;;10416123;27;20071;-60
2023/03/03 13:50:57;;;;;;;78.82;52.95;;;;;;;;;;10422969;27;20280;-60
2023/03/03 13:56:00;;;;;;;111.65;78.38;;;;;;;;;;10420962;27;20082;-61
2023/03/03 14:01:01;;;;;;;86.93;62.75;;;;;;;;;;10419013;27;20078;-61
2023/03/03 14:06:02;;;;;;;59.92;43.97;;;;;;;;;;10418962;27;20083;-61
2023/03/03 14:11:06;;;;;;;77.18;59.75;;;;;;;;;;10418466;27;20066;-61
2023/03/03 14:16:09;;;;;;;66.95;55.38;;;;;;;;;;10420897;27;20071;-60
2023/03/03 14:21:09;;;;;;;60.72;46.40;;;;;;;;;;10420424;27;20063;-59
2023/03/03 14:26:08;;;;;;;58.90;46.97;;;;;;;;;;10418493;27;20073;-60
2023/03/03 14:31:15;;;;;;;66.57;51.72;;;;;;;;;;10419622;27;20071;-60
2023/03/03 14:36:15;;;;;;;61.97;48.05;;;;;;;;;;10418623;27;20075;-60
2023/03/03 14:41:14;;;;;;;89.60;65.13;;;;;;;;;;10417113;27;20067;-60
2023/03/03 14:46:32;;;;;;;76.28;56.25;;;;;;;;;;10416830;27;20567;-60
2023/03/03 14:51:33;;;;;;;95.50;70.80;;;;;;;;;;10416824;27;20039;-60
2023/03/03 14:56:34;;;;;;;82.00;62.17;;;;;;;;;;10417935;27;20465;-60
2023/03/03 15:01:34;;;;;;;67.53;49.58;;;;;;;;;;10419734;27;20067;-60
2023/03/03 15:06:37;;;;;;;53.47;43.28;;;;;;;;;;10415201;27;20180;-60
2023/03/03 15:11:36;;;;;;;59.10;45.28;;;;;;;;;;10419435;27;20078;-61
2023/03/03 15:16:35;;;;;;;53.17;40.42;;;;;;;;;;10415797;27;20052;-60
2023/03/03 15:21:35;;;;;;;47.55;38.97;;;;;;;;;;10417050;27;20067;-60
2023/03/03 15:26:41;;;;;;;49.88;39.60;;;;;;;;;;10417634;27;20488;-59
2023/03/03 15:31:45;;;;;;;46.40;40.55;;;;;;;;;;10415373;27;20117;-59
2023/03/03 15:36:47;;;;;;;51.87;40.77;;;;;;;;;;10417459;27;20082;-60
2023/03/03 15:41:50;;;;;;;61.33;49.83;;;;;;;;;;10415632;27;20070;-59
2023/03/03 15:46:59;;;;;;;57.83;45.45;;;;;;;;;;10417787;27;20115;-59
2023/03/03 15:52:05;;;;;;;81.72;64.05;;;;;;;;;;10411234;27;20082;-60
2023/03/03 15:57:05;;;;;;;61.88;51.20;;;;;;;;;;10411465;27;20577;-60
2023/03/03 16:02:11;;;;;;;114.63;83.10;;;;;;;;;;10411452;27;20098;-60
2023/03/03 16:07:14;;;;;;;85.38;66.80;;;;;;;;;;10411862;27;20086;-60
2023/03/03 16:12:16;;;;;;;96.90;71.60;;;;;;;;;;10415692;27;20062;-60
2023/03/03 16:17:21;;;;;;;225.82;159.23;;;;;;;;;;10413230;27;20655;-61
2023/03/03 16:22:40;;;;;;;89.78;67.40;;;;;;;;;;10415775;27;20063;-61
2023/03/03 16:27:40;;;;;;;97.28;69.20;;;;;;;;;;10412659;27;20090;-60
2023/03/03 16:32:42;;;;;;;155.45;105.60;;;;;;;;;;10415517;27;20596;-60
2023/03/03 16:37:53;;;;;;;149.68;101.22;;;;;;;;;;10415016;27;20059;-60
2023/03/03 16:42:56;;;;;;;70.55;57.53;;;;;;;;;;10411574;27;20065;-60
2023/03/03 16:48:04;;;;;;;65.10;54.47;;;;;;;;;;10413567;27;20078;-60
2023/03/03 16:53:08;;;;;;;95.93;75.07;;;;;;;;;;10414051;27;20614;-60
2023/03/03 16:58:12;;;;;;;98.18;79.13;;;;;;;;;;10413650;27;20063;-61
2023/03/03 17:03:21;;;;;;;85.57;67.82;;;;;;;;;;10413075;27;20468;-59
2023/03/03 17:08:49;;;;;;;111.00;88.18;;;;;;;;;;10407631;27;20062;-60
2023/03/03 17:13:53;;;;;;;81.60;67.70;;;;;;;;;;10359772;27;20083;-60
2023/03/03 17:18:59;;;;;;;118.32;88.80;;;;;;;;;;10410864;28;20351;-60
2023/03/03 17:24:01;;;;;;;142.98;99.38;;;;;;;;;;10412176;28;20051;-60
2023/03/03 17:29:07;;;;;;;168.32;114.63;;;;;;;;;;10413264;27;20078;-60
2023/03/03 17:34:22;;;;;;;116.60;83.35;;;;;;;;;;10415977;28;20071;-61
2023/03/03 17:39:30;;;;;;;169.30;117.88;;;;;;;;;;10408772;28;20519;-60
2023/03/03 17:44:32;;;;;;;63.70;53.97;;;;;;;;;;10413366;28;20059;-60
2023/03/03 17:49:48;;;;;;;88.90;68.05;;;;;;;;;;10410445;28;20495;-60
2023/03/03 17:55:05;;;;;;;79.15;62.22;;;;;;;;;;10405379;27;20380;-59
2023/03/03 18:00:13;;;;;;;53.00;47.17;;;;;;;;;;10412244;28;20051;-59
2023/03/03 18:05:18;;;;;;;54.90;47.45;;;;;;;;;;10408008;28;20068;-60
2023/03/03 18:10:34;;;;;;;51.72;45.85;;;;;;;;;;10409150;28;20067;-61
2023/03/03 18:15:46;;;;;;;52.75;45.63;;;;;;;;;;10409472;28;20456;-61
2023/03/03 18:21:02;;;;;;;55.28;44.60;;;;;;;;;;10415558;27;20145;-60
2023/03/03 18:26:03;;;;;;;52.83;45.95;;;;;;;;;;10415211;27;20082;-60
2023/03/03 18:31:04;;;;;;;58.42;49.70;;;;;;;;;;10413078;27;20074;-61
2023/03/03 18:36:10;;;;;;;50.72;41.83;;;;;;;;;;10414106;27;20075;-60
2023/03/03 18:41:11;;;;;;;61.72;48.50;;;;;;;;;;10417343;27;20076;-60
2023/03/03 18:46:12;;;;;;;94.22;74.30;;;;;;;;;;10418189;27;20085;-61
2023/03/03 18:51:10;;;;;;;83.40;61.83;;;;;;;;;;10417589;27;20481;-60
2023/03/03 18:56:10;;;;;;;114.28;87.15;;;;;;;;;;10415496;27;20472;-59
2023/03/03 19:01:29;;;;;;;82.88;64.63;;;;;;;;;;10417781;27;20074;-61
2023/03/03 19:06:52;;;;;;;96.03;73.45;;;;;;;;;;10418154;27;20111;-59
2023/03/03 19:11:50;;;;;;;70.28;54.53;;;;;;;;;;10415772;27;20066;-60
2023/03/03 19:16:50;;;;;;;68.82;52.67;;;;;;;;;;10417299;27;20453;-60
2023/03/03 19:21:51;;;;;;;55.17;44.30;;;;;;;;;;10409929;27;20070;-60
2023/03/03 19:27:04;;;;;;;65.43;51.33;;;;;;;;;;10416349;27;20082;-60
2023/03/03 19:32:11;;;;;;;60.00;45.75;;;;;;;;;;10404410;27;20082;-59
2023/03/03 19:37:32;;;;;;;63.75;48.33;;;;;;;;;;10400167;27;20492;-60
2023/03/03 19:42:43;;;;;;;65.90;55.67;;;;;;;;;;10400412;27;20067;-60
2023/03/03 19:47:44;;;;;;;95.28;68.38;;;;;;;;;;10404216;27;20082;-60
2023/03/03 19:52:46;;;;;;;66.68;52.22;;;;;;;;;;10401260;27;20082;-58
2023/03/03 19:57:50;;;;;;;78.85;62.78;;;;;;;;;;10400737;27;20075;-59
2023/03/03 20:02:55;;;;;;;65.22;52.17;;;;;;;;;;10400879;27;20124;-60
2023/03/03 20:07:53;;;;;;;;;;;;;;;;;;10402058;27;20063;-59
2023/03/03 20:12:59;;;;;;;59.20;49.20;;;;;;;;;;10399619;27;19966;-60
2023/03/03 20:18:09;;;;;;;73.15;57.00;;;;;;;;;;10409810;27;20492;-60
2023/03/03 20:23:15;;;;;;;57.17;48.13;;;;;;;;;;10405079;27;20079;-59
2023/03/03 20:28:24;;;;;;;56.28;44.05;;;;;;;;;;10411580;27;20071;-58
2023/03/03 20:33:29;;;;;;;50.90;41.83;;;;;;;;;;10400866;27;20073;-59
2023/03/03 20:38:29;;;;;;;50.00;42.90;;;;;;;;;;10403478;27;20071;-60
2023/03/03 20:43:37;;;;;;;49.78;41.88;;;;;;;;;;10401441;27;20523;-60
2023/03/03 20:48:43;;;;;;;50.58;42.60;;;;;;;;;;10412339;27;20078;-59
2023/03/03 20:53:47;;;;;;;48.38;40.53;;;;;;;;;;10413345;27;20067;-59
2023/03/03 20:58:58;;;;;;;50.60;42.17;;;;;;;;;;10414087;27;20073;-60
2023/03/03 21:04:16;;;;;;;55.08;42.42;;;;;;;;;;10408326;27;20082;-60
2023/03/03 21:09:25;;;;;;;54.10;39.65;;;;;;;;;;10413188;27;20180;-60
2023/03/03 21:14:26;;;;;;;52.63;41.92;;;;;;;;;;10408204;27;20094;-58
2023/03/03 21:19:26;;;;;;;51.45;40.05;;;;;;;;;;10395621;28;20078;-62
2023/03/03 21:24:39;;;;;;;58.42;45.78;;;;;;;;;;10399364;28;20055;-61
2023/03/03 21:29:39;;;;;;;50.35;39.97;;;;;;;;;;10399345;28;20075;-60
2023/03/03 21:34:38;;;;;;;49.00;38.15;;;;;;;;;;10398559;28;20071;-61
2023/03/03 21:39:38;;;;;;;45.47;38.35;;;;;;;;;;10398528;28;20535;-62
2023/03/03 21:44:37;;;;;;;49.58;39.28;;;;;;;;;;10403991;28;20070;-61
2023/03/03 21:49:39;;;;;;;54.50;42.03;;;;;;;;;;10397029;28;20864;-61
2023/03/03 21:54:38;;;;;;;48.90;40.25;;;;;;;;;;10409514;27;20555;-61
2023/03/03 21:59:36;;;;;;;54.95;42.80;;;;;;;;;;10420520;27;20047;-62
2023/03/03 22:04:37;;;;;;;55.47;44.35;;;;;;;;;;10418686;27;20081;-61
2023/03/03 22:09:37;;;;;;;45.65;38.05;;;;;;;;;;10419888;27;20070;-61
2023/03/03 22:14:36;;;;;;;43.50;36.88;;;;;;;;;;10404263;27;20055;-61
2023/03/03 22:19:34;;;;;;;46.28;37.15;;;;;;;;;;10402554;27;20082;-61
2023/03/03 22:24:33;;;;;;;46.58;37.97;;;;;;;;;;10404353;27;20086;-62
2023/03/03 22:29:32;;;;;;;45.30;38.75;;;;;;;;;;10403425;27;20467;-61
2023/03/03 22:34:31;;;;;;;49.17;38.58;;;;;;;;;;10416847;27;20070;-62
2023/03/03 22:39:29;;;;;;;51.10;40.55;;;;;;;;;;10412863;27;20449;-62
2023/03/03 22:44:27;;;;;;;48.38;39.92;;;;;;;;;;10419399;27;20063;-62
2023/03/03 22:49:26;;;;;;;50.88;38.53;;;;;;;;;;10419772;27;20070;-62
2023/03/03 22:54:25;;;;;;;46.47;39.03;;;;;;;;;;10422474;27;20067;-62
2023/03/03 22:59:23;;;;;;;47.10;40.15;;;;;;;;;;10421600;27;20499;-62
2023/03/03 23:04:21;;;;;;;48.60;38.47;;;;;;;;;;10417668;27;20618;-63
2023/03/03 23:09:21;;;;;;;47.30;36.38;;;;;;;;;;10415716;27;20524;-62
2023/03/03 23:14:19;;;;;;;47.08;37.55;;;;;;;;;;10417581;27;20522;-62
2023/03/03 23:19:17;;;;;;;55.17;39.40;;;;;;;;;;10417978;27;20105;-61
2023/03/03 23:24:15;;;;;;;47.15;40.78;;;;;;;;;;10418659;27;20078;-62
2023/03/03 23:29:15;;;;;;;47.83;37.47;;;;;;;;;;10417292;27;20079;-62
2023/03/03 23:34:13;;;;;;;51.88;37.53;;;;;;;;;;10416123;27;20094;-62
2023/03/03 23:39:11;;;;;;;49.17;37.40;;;;;;;;;;10417486;27;20077;-62
2023/03/03 23:44:09;;;;;;;50.38;37.15;;;;;;;;;;10419642;27;20077;-61
2023/03/03 23:49:09;;;;;;;43.67;34.85;;;;;;;;;;10416384;27;20482;-61
2023/03/03 23:54:07;;;;;;;48.58;37.28;;;;;;;;;;10412080;27;20059;-62
2023/03/03 23:59:05;;;;;;;47.00;36.70;;;;;;;;;;10415852;27;20051;-60
